East Brookfield, Vermont
Current Conditions -  °F | °C
As of 11:51 AM on Friday 28 Nov 2014 (Local Time) from KMPV Reporting Station
Overcast Overcast  
Wind Chill: 16°   Ceiling: 3000
Heat Index: 22°   Visibility: 10mi
Dew Point: 15°   Wind: 5mph
Humidity: 75%   Direction: NA
Pressure: 30.07"   Gusts: NA
Location:  43.9542°N, 72.5457°W
Report Text: KMPV 281651Z AUTO VRB04KT 10SM OVC030 M06/M09 A3007 RMK AO2 SNE15 SLP203 P0000 T10561094
Loading
Personal Weather Stations






























Interactive Weather Map New forecast layout! Learn more

10-Day Weather Forecast

Advertisements
Track Severe Weather on mobile